createdAt,value
2024-01-05T00:00:33.128Z,7.18
2024-01-05T00:03:20.209Z,7.13
2024-01-05T00:06:07.181Z,7.28
2024-01-05T00:08:54.994Z,7.17
2024-01-05T00:11:42.089Z,7.25
2024-01-05T00:14:30.459Z,7.23
2024-01-05T00:17:17.552Z,7.32
2024-01-05T00:20:08.155Z,7.27
2024-01-05T00:22:55.021Z,7.33
2024-01-05T00:25:43.723Z,7.24
2024-01-05T00:28:30.753Z,7.13
2024-01-05T00:31:19.523Z,7.32
2024-01-05T00:34:06.076Z,7.39
2024-01-05T00:36:52.838Z,7.22
2024-01-05T00:39:39.874Z,7.06
2024-01-05T00:42:26.786Z,7.22
2024-01-05T00:45:17.202Z,7.15
2024-01-05T00:48:06.071Z,7.30
2024-01-05T00:50:53.211Z,7.34
2024-01-05T00:53:40.644Z,7.29
2024-01-05T00:56:28.912Z,7.44
2024-01-05T00:59:16.563Z,7.47
2024-01-05T01:02:03.795Z,7.27
2024-01-05T01:04:53.445Z,7.46
2024-01-05T01:07:42.462Z,7.27
2024-01-05T01:10:29.179Z,7.34
2024-01-05T01:13:16.055Z,7.37
2024-01-05T01:16:04.904Z,7.39
2024-01-05T01:18:52.504Z,7.26
2024-01-05T01:21:40.758Z,7.26
2024-01-05T01:24:27.524Z,7.41
2024-01-05T01:27:14.463Z,7.40
2024-01-05T01:30:02.071Z,7.25
2024-01-05T01:32:53.987Z,7.20
2024-01-05T01:35:41.548Z,7.23
2024-01-05T01:38:29.660Z,7.36
2024-01-05T01:41:19.303Z,7.29
2024-01-05T01:44:06.319Z,7.26
2024-01-05T01:46:54.273Z,7.35
2024-01-05T01:49:41.480Z,7.33
2024-01-05T01:52:34.365Z,7.36
2024-01-05T01:55:23.527Z,7.29
2024-01-05T01:58:11.377Z,7.24
2024-01-05T02:01:01.255Z,7.20
2024-01-05T02:03:48.325Z,7.39
2024-01-05T02:06:35.444Z,7.38
2024-01-05T02:09:25.592Z,7.27
2024-01-05T02:12:15.157Z,7.28
2024-01-05T02:15:02.094Z,7.21
2024-01-05T02:17:49.097Z,7.17
2024-01-05T02:20:35.801Z,7.28
2024-01-05T02:23:25.739Z,7.09
2024-01-05T02:26:12.904Z,7.24
2024-01-05T02:29:01.898Z,7.28
2024-01-05T02:31:48.545Z,7.14
2024-01-05T02:34:35.478Z,7.36
2024-01-05T02:37:22.543Z,7.25
2024-01-05T02:40:13.055Z,7.28
2024-01-05T02:42:59.936Z,7.49
2024-01-05T02:45:48.805Z,7.40
2024-01-05T02:48:40.678Z,7.36
2024-01-05T02:51:30.806Z,7.31
2024-01-05T02:54:22.697Z,7.41
2024-01-05T02:57:14.148Z,7.36
2024-01-05T03:00:06.136Z,7.32
2024-01-05T03:02:58.483Z,7.38
2024-01-05T03:05:45.955Z,7.31
2024-01-05T03:08:35.320Z,7.33
2024-01-05T03:11:25.265Z,7.40
2024-01-05T03:14:20.421Z,7.35
2024-01-05T03:17:09.065Z,7.29
2024-01-05T03:20:10.145Z,7.25
2024-01-05T03:22:59.612Z,7.19
2024-01-05T03:25:48.808Z,7.33
2024-01-05T03:28:41.793Z,7.28
2024-01-05T03:31:37.159Z,7.23
2024-01-05T03:34:26.422Z,7.13
2024-01-05T03:37:14.329Z,7.23
2024-01-05T03:40:05.743Z,7.24
2024-01-05T03:42:54.392Z,7.38
2024-01-05T03:45:43.452Z,7.32
2024-01-05T03:48:36.437Z,7.36
2024-01-05T03:51:29.892Z,7.43
2024-01-05T03:54:18.598Z,7.40
2024-01-05T03:57:10.339Z,7.35
2024-01-05T03:59:59.217Z,7.55
2024-01-05T04:02:46.810Z,7.46
2024-01-05T04:05:34.705Z,7.55
2024-01-05T04:08:21.301Z,7.33
2024-01-05T04:11:08.770Z,7.44
2024-01-05T04:13:55.800Z,7.45
2024-01-05T04:16:42.930Z,7.30
2024-01-05T04:19:31.228Z,7.31
2024-01-05T04:22:19.555Z,7.31
2024-01-05T04:25:06.695Z,7.24
2024-01-05T04:27:54.149Z,7.08
2024-01-05T04:30:41.172Z,7.34
2024-01-05T04:33:28.080Z,7.18
2024-01-05T04:36:17.116Z,7.13
2024-01-05T04:39:06.005Z,7.25
2024-01-05T04:41:52.630Z,7.13
2024-01-05T04:44:39.547Z,7.13
2024-01-05T04:47:26.404Z,7.16
2024-01-05T04:50:13.369Z,7.14
2024-01-05T04:53:00.071Z,7.08
2024-01-05T04:55:48.250Z,7.05
2024-01-05T04:58:35.242Z,7.08
2024-01-05T05:01:21.870Z,7.14
2024-01-05T05:04:08.747Z,7.09
2024-01-05T05:06:55.696Z,7.10
2024-01-05T05:09:43.017Z,7.17
2024-01-05T05:12:31.294Z,7.27
2024-01-05T05:15:25.295Z,7.18
2024-01-05T05:18:12.537Z,7.02
2024-01-05T05:20:59.963Z,6.98
2024-01-05T05:23:46.693Z,6.99
2024-01-05T05:26:33.590Z,6.87
2024-01-05T05:29:21.966Z,6.95
2024-01-05T05:32:08.673Z,6.83
2024-01-05T05:34:55.877Z,6.92
2024-01-05T05:37:42.332Z,7.06
2024-01-05T05:40:29.190Z,6.78
2024-01-05T05:43:16.269Z,6.76
2024-01-05T05:46:04.582Z,6.70
2024-01-05T05:48:51.446Z,6.74
2024-01-05T05:51:38.310Z,6.82
2024-01-05T05:54:25.183Z,6.73
2024-01-05T05:57:13.429Z,6.82
2024-01-05T06:00:00.357Z,6.82
2024-01-05T06:02:48.668Z,7.21
2024-01-05T06:05:35.766Z,6.93
2024-01-05T06:08:22.605Z,7.20
2024-01-05T06:11:09.100Z,7.01
2024-01-05T06:13:56.140Z,7.01
2024-01-05T06:16:42.803Z,6.93
2024-01-05T06:19:31.546Z,7.00
2024-01-05T06:22:18.261Z,6.77
2024-01-05T06:25:05.387Z,6.97
2024-01-05T06:27:52.216Z,6.97
2024-01-05T06:30:39.264Z,7.02
2024-01-05T06:33:26.151Z,7.11
2024-01-05T06:36:14.390Z,7.17
2024-01-05T06:39:01.100Z,6.97
2024-01-05T06:41:48.188Z,6.91
2024-01-05T06:44:35.165Z,6.80
2024-01-05T06:47:21.998Z,6.79
2024-01-05T06:50:09.938Z,6.72
2024-01-05T06:52:58.092Z,6.78
2024-01-05T06:55:45.153Z,6.72
2024-01-05T06:58:33.520Z,6.80
2024-01-05T07:01:20.241Z,6.74
2024-01-05T07:04:09.272Z,6.77
2024-01-05T07:06:55.767Z,6.78
2024-01-05T07:09:44.354Z,6.88
2024-01-05T07:12:30.988Z,6.93
2024-01-05T07:15:17.984Z,6.97
2024-01-05T07:18:07.267Z,6.96
2024-01-05T07:20:54.143Z,6.87
2024-01-05T07:23:40.927Z,6.88
2024-01-05T07:26:29.284Z,6.87
2024-01-05T07:29:16.265Z,6.82
2024-01-05T07:32:03.529Z,6.85
2024-01-05T07:34:50.455Z,6.85
2024-01-05T07:37:39.076Z,6.84
2024-01-05T07:40:25.758Z,6.95
2024-01-05T07:43:14.381Z,6.88
2024-01-05T07:46:04.284Z,6.96
2024-01-05T07:48:51.310Z,6.95
2024-01-05T07:51:41.254Z,7.03
2024-01-05T07:54:28.971Z,7.16
2024-01-05T07:57:15.716Z,7.07
2024-01-05T08:00:04.067Z,6.96
2024-01-05T08:02:52.143Z,6.92
2024-01-05T08:05:39.248Z,6.86
2024-01-05T08:08:26.177Z,6.82
2024-01-05T08:11:13.061Z,7.04
2024-01-05T08:13:59.662Z,7.03
2024-01-05T08:16:48.089Z,7.23
2024-01-05T08:19:34.668Z,7.37
2024-01-05T08:22:21.571Z,7.32
2024-01-05T08:25:08.985Z,7.50
2024-01-05T08:27:55.977Z,7.27
2024-01-05T08:30:43.018Z,7.13
2024-01-05T08:33:31.310Z,7.11
2024-01-05T08:36:19.318Z,7.22
2024-01-05T08:39:07.039Z,7.17
2024-01-05T08:41:53.847Z,7.19
2024-01-05T08:44:42.114Z,7.15
2024-01-05T08:47:29.035Z,7.42
2024-01-05T08:50:18.676Z,7.24
2024-01-05T08:53:06.240Z,7.56
2024-01-05T08:55:53.395Z,7.80
2024-01-05T08:58:40.279Z,7.41
2024-01-05T09:01:28.402Z,7.44
2024-01-05T09:04:16.364Z,7.64
2024-01-05T09:07:05.561Z,7.51
2024-01-05T09:09:52.441Z,7.52
2024-01-05T09:12:40.224Z,7.86
2024-01-05T09:15:27.059Z,7.90
2024-01-05T09:18:16.398Z,7.74
2024-01-05T09:21:09.133Z,7.86
2024-01-05T09:23:57.151Z,7.84
2024-01-05T09:26:45.173Z,7.95
2024-01-05T09:29:32.972Z,8.46
2024-01-05T09:32:19.966Z,8.43
2024-01-05T09:35:10.153Z,8.85
2024-01-05T09:37:58.619Z,8.60
2024-01-05T09:40:48.203Z,8.87
2024-01-05T09:43:48.086Z,9.15
2024-01-05T09:46:36.242Z,9.15
2024-01-05T09:49:24.868Z,9.53
2024-01-05T09:52:15.076Z,11.28
2024-01-05T09:55:02.549Z,11.90
2024-01-05T09:57:52.932Z,10.68
2024-01-05T10:00:45.661Z,9.63
2024-01-05T10:03:34.318Z,9.06
2024-01-05T10:06:21.520Z,8.69
2024-01-05T10:09:09.070Z,8.70
2024-01-05T10:11:56.340Z,8.60
2024-01-05T10:14:47.913Z,8.55
2024-01-05T10:17:35.978Z,8.43
2024-01-05T10:20:23.454Z,8.37
2024-01-05T10:23:10.237Z,8.28
2024-01-05T10:25:56.908Z,8.36
2024-01-05T10:28:43.897Z,8.15
2024-01-05T10:31:33.194Z,8.20
2024-01-05T10:34:20.129Z,8.12
2024-01-05T10:37:07.560Z,8.07
2024-01-05T10:39:55.370Z,8.16
2024-01-05T10:42:42.461Z,8.33
2024-01-05T10:45:30.425Z,8.14
2024-01-05T10:48:19.811Z,8.20
2024-01-05T10:51:08.038Z,8.14
2024-01-05T10:53:55.932Z,8.04
2024-01-05T10:56:44.928Z,8.07
2024-01-05T10:59:31.912Z,8.01
2024-01-05T11:02:23.751Z,8.09
2024-01-05T11:05:14.914Z,8.00
2024-01-05T11:08:03.977Z,8.11
2024-01-05T11:11:02.138Z,8.30
2024-01-05T11:14:02.297Z,8.22
2024-01-05T11:17:17.179Z,8.20
2024-01-05T11:20:21.942Z,8.29
2024-01-05T11:23:10.851Z,8.33
2024-01-05T11:25:57.758Z,8.32
2024-01-05T11:28:45.888Z,8.36
2024-01-05T11:31:54.591Z,8.42
2024-01-05T11:34:41.913Z,8.39
2024-01-05T11:37:32.130Z,8.41
2024-01-05T11:40:28.927Z,8.49
2024-01-05T11:43:36.821Z,8.51
2024-01-05T11:46:54.206Z,8.45
2024-01-05T11:49:43.239Z,8.50
2024-01-05T11:52:31.771Z,8.55
2024-01-05T11:55:18.261Z,8.35
2024-01-05T11:58:05.941Z,8.36
2024-01-05T12:00:53.151Z,8.24
2024-01-05T12:03:40.802Z,8.34
2024-01-05T12:06:27.639Z,8.45
2024-01-05T12:09:19.684Z,8.33
2024-01-05T12:12:20.409Z,8.41
2024-01-05T12:15:10.722Z,8.58
2024-01-05T12:18:05.066Z,8.53
2024-01-05T12:20:55.860Z,8.55
2024-01-05T12:23:52.611Z,8.44
2024-01-05T12:26:40.813Z,8.41
2024-01-05T12:29:28.378Z,8.44
2024-01-05T12:32:15.525Z,8.53
2024-01-05T12:35:02.928Z,8.43
2024-01-05T12:37:54.302Z,8.53
2024-01-05T12:40:42.409Z,8.56
2024-01-05T12:43:30.670Z,8.86
2024-01-05T12:46:17.344Z,8.97
2024-01-05T12:49:19.538Z,9.05
2024-01-05T12:52:06.598Z,8.75
2024-01-05T12:54:53.347Z,8.82
2024-01-05T12:57:40.815Z,8.88
2024-01-05T13:00:29.346Z,9.09
2024-01-05T13:03:17.554Z,8.94
2024-01-05T13:06:09.192Z,9.26
2024-01-05T13:08:56.888Z,8.96
2024-01-05T13:11:52.770Z,8.96
2024-01-05T13:14:39.410Z,9.12
2024-01-05T13:17:27.745Z,8.86
2024-01-05T13:20:15.584Z,9.33
2024-01-05T13:23:02.440Z,9.44
2024-01-05T13:25:50.410Z,9.43
2024-01-05T13:28:37.999Z,9.85
2024-01-05T13:31:24.926Z,9.54
2024-01-05T13:34:13.079Z,9.90
2024-01-05T13:37:02.335Z,10.03
2024-01-05T13:39:49.284Z,10.07
2024-01-05T13:42:36.304Z,10.31
2024-01-05T13:45:23.439Z,10.17
2024-01-05T13:48:10.515Z,10.30
2024-01-05T13:50:58.760Z,10.44
2024-01-05T13:53:45.684Z,10.18
2024-01-05T13:56:33.021Z,10.18
2024-01-05T13:59:20.062Z,9.89
2024-01-05T14:02:07.048Z,9.61
2024-01-05T14:04:54.264Z,9.66
2024-01-05T14:07:43.327Z,9.51
2024-01-05T14:10:30.100Z,9.65
2024-01-05T14:13:17.061Z,9.30
2024-01-05T14:16:06.963Z,9.40
2024-01-05T14:18:55.675Z,9.39
2024-01-05T14:21:42.874Z,9.54
2024-01-05T14:24:31.058Z,9.31
2024-01-05T14:27:18.067Z,9.66
2024-01-05T14:30:06.362Z,9.85
2024-01-05T14:32:53.317Z,10.13
2024-01-05T14:35:40.257Z,9.92
2024-01-05T14:38:26.935Z,9.71
2024-01-05T14:41:15.164Z,9.55
2024-01-05T14:44:02.585Z,9.63
2024-01-05T14:46:49.898Z,9.42
2024-01-05T14:49:43.577Z,9.59
2024-01-05T14:52:31.004Z,9.63
2024-01-05T14:58:58.492Z,9.54
2024-01-05T15:01:45.175Z,9.40
2024-01-05T15:04:32.754Z,9.34
2024-01-05T15:07:19.713Z,9.46
2024-01-05T15:10:07.426Z,9.34
2024-01-05T15:12:54.109Z,9.11
2024-01-05T15:15:43.991Z,9.22
2024-01-05T15:18:31.258Z,9.21
2024-01-05T15:21:24.882Z,9.08
2024-01-05T15:24:11.652Z,8.94
2024-01-05T15:26:58.200Z,8.82
2024-01-05T15:29:45.164Z,8.82
2024-01-05T15:32:33.487Z,8.69
2024-01-05T15:35:20.072Z,8.67
2024-01-05T15:38:07.992Z,8.60
2024-01-05T15:40:54.812Z,8.41
2024-01-05T15:43:41.979Z,8.43
2024-01-05T15:46:28.981Z,8.39
2024-01-05T15:49:18.992Z,8.44
2024-01-05T15:52:08.301Z,8.21
2024-01-05T15:54:55.454Z,8.16
2024-01-05T15:57:42.372Z,8.16
2024-01-05T16:00:30.081Z,8.29
2024-01-05T16:03:16.754Z,8.17
2024-01-05T16:06:05.403Z,8.16
2024-01-05T16:08:52.215Z,8.11
2024-01-05T16:11:40.521Z,8.02
2024-01-05T16:14:27.098Z,8.07
2024-01-05T16:17:14.016Z,8.00
2024-01-05T16:20:00.980Z,8.04
2024-01-05T16:22:49.028Z,8.04
2024-01-05T16:25:35.892Z,7.92
2024-01-05T16:28:22.947Z,7.62
2024-01-05T16:31:10.314Z,7.45
2024-01-05T16:33:57.339Z,7.33
2024-01-05T16:36:44.204Z,7.34
2024-01-05T16:39:32.450Z,7.20
2024-01-05T16:42:19.519Z,7.08
2024-01-05T16:45:07.078Z,6.98
2024-01-05T16:47:53.909Z,6.99
2024-01-05T16:50:43.371Z,6.92
2024-01-05T16:53:32.444Z,7.08
2024-01-05T16:56:26.168Z,6.96
2024-01-05T16:59:13.000Z,6.86
2024-01-05T17:01:59.969Z,6.75
2024-01-05T17:04:48.021Z,6.94
2024-01-05T17:07:34.909Z,6.81
2024-01-05T17:10:22.916Z,6.77
2024-01-05T17:13:11.280Z,6.55
2024-01-05T17:15:58.173Z,6.55
2024-01-05T17:18:46.000Z,6.58
2024-01-05T17:21:33.002Z,6.58
2024-01-05T17:24:19.996Z,6.51
2024-01-05T17:27:07.852Z,6.74
2024-01-05T17:29:55.872Z,6.81
2024-01-05T17:32:44.353Z,6.88
2024-01-05T17:35:31.280Z,6.76
2024-01-05T17:38:18.770Z,7.04
2024-01-05T17:41:05.625Z,6.79
2024-01-05T17:43:52.214Z,7.09
2024-01-05T17:46:40.572Z,7.00
2024-01-05T17:49:27.554Z,6.60
2024-01-05T17:52:14.425Z,6.56
2024-01-05T17:55:01.461Z,6.43
2024-01-05T17:57:48.316Z,7.01
2024-01-05T18:00:36.009Z,6.64
2024-01-05T18:03:24.169Z,6.55
2024-01-05T18:06:10.982Z,6.38
2024-01-05T18:08:57.565Z,6.27
2024-01-05T18:11:45.926Z,6.19
2024-01-05T18:14:33.758Z,6.18
2024-01-05T18:17:20.672Z,5.99
2024-01-05T18:20:10.814Z,6.05
2024-01-05T18:22:57.726Z,6.16
2024-01-05T18:25:49.540Z,6.34
2024-01-05T18:28:37.056Z,6.41
2024-01-05T18:31:27.558Z,6.30
2024-01-05T18:34:14.455Z,6.42
2024-01-05T18:37:02.735Z,6.30
2024-01-05T18:39:49.273Z,6.41
2024-01-05T18:42:36.446Z,6.18
2024-01-05T18:45:24.379Z,6.09
2024-01-05T18:48:12.677Z,6.13
2024-01-05T18:50:59.590Z,6.27
2024-01-05T18:53:48.021Z,6.06
2024-01-05T18:56:34.917Z,6.06
2024-01-05T18:59:21.471Z,6.00
2024-01-05T19:02:08.728Z,5.82
2024-01-05T19:04:56.961Z,5.73
2024-01-05T19:07:44.064Z,5.85
2024-01-05T19:10:33.781Z,6.03
2024-01-05T19:13:20.690Z,5.87
2024-01-05T19:16:08.889Z,5.74
2024-01-05T19:18:55.738Z,5.83
2024-01-05T19:21:50.161Z,6.09
2024-01-05T19:24:42.684Z,5.65
2024-01-05T19:27:31.209Z,5.68
2024-01-05T19:30:18.879Z,5.53
2024-01-05T19:33:06.800Z,5.39
2024-01-05T19:35:53.746Z,5.57
2024-01-05T19:38:41.877Z,5.74
2024-01-05T19:41:28.761Z,5.66
2024-01-05T19:44:18.707Z,5.74
2024-01-05T19:47:06.146Z,5.48
2024-01-05T19:49:52.857Z,6.01
2024-01-05T19:52:39.823Z,5.68
2024-01-05T19:55:26.768Z,5.93
2024-01-05T19:58:13.830Z,5.41
2024-01-05T20:01:04.159Z,5.58
2024-01-05T20:03:50.840Z,5.59
2024-01-05T20:06:39.803Z,5.56
2024-01-05T20:09:26.681Z,5.65
2024-01-05T20:12:17.964Z,5.77
2024-01-05T20:15:06.127Z,5.42
2024-01-05T20:17:54.637Z,5.54
2024-01-05T20:20:41.275Z,5.19
2024-01-05T20:23:28.292Z,5.44
2024-01-05T20:26:19.430Z,5.22
2024-01-05T20:29:06.544Z,5.12
2024-01-05T20:31:55.387Z,4.91
2024-01-05T20:34:43.632Z,5.18
2024-01-05T20:37:30.522Z,5.21
2024-01-05T20:40:19.232Z,5.39
2024-01-05T20:43:06.133Z,5.33
2024-01-05T20:45:53.132Z,5.16
2024-01-05T20:48:40.063Z,5.21
2024-01-05T20:51:29.343Z,5.28
2024-01-05T20:54:17.957Z,5.29
2024-01-05T20:57:05.163Z,5.40
2024-01-05T20:59:51.999Z,5.24
2024-01-05T21:02:38.916Z,5.27
2024-01-05T21:05:26.414Z,5.40
2024-01-05T21:08:16.173Z,5.32
2024-01-05T21:11:02.786Z,5.40
2024-01-05T21:13:49.699Z,5.40
2024-01-05T21:16:41.445Z,5.37
2024-01-05T21:19:28.410Z,5.25
2024-01-05T21:22:16.050Z,5.17
2024-01-05T21:25:06.777Z,5.21
2024-01-05T21:27:53.660Z,5.55
2024-01-05T21:30:42.087Z,5.59
2024-01-05T21:33:28.958Z,5.65
2024-01-05T21:36:15.888Z,5.71
2024-01-05T21:39:02.811Z,5.68
2024-01-05T21:41:51.334Z,5.77
2024-01-05T21:44:38.189Z,5.96
2024-01-05T21:47:25.049Z,6.01
2024-01-05T21:50:13.303Z,5.95
2024-01-05T21:52:59.831Z,5.91
2024-01-05T21:55:46.681Z,6.09
2024-01-05T21:58:35.121Z,6.00
2024-01-05T22:01:22.171Z,5.74
2024-01-05T22:04:09.166Z,6.02
2024-01-05T22:06:57.599Z,5.86
2024-01-05T22:09:45.596Z,5.99
2024-01-05T22:12:32.589Z,5.74
2024-01-05T22:15:20.576Z,5.51
2024-01-05T22:18:08.361Z,5.78
2024-01-05T22:20:55.387Z,5.55
2024-01-05T22:23:42.472Z,5.54
2024-01-05T22:26:34.121Z,5.51
2024-01-05T22:29:21.025Z,5.39
2024-01-05T22:32:09.689Z,5.59
2024-01-05T22:34:56.810Z,5.74
2024-01-05T22:37:43.545Z,5.63
2024-01-05T22:40:30.558Z,5.68
2024-01-05T22:43:17.576Z,5.69
2024-01-05T22:46:05.649Z,5.55
2024-01-05T22:48:53.844Z,5.59
2024-01-05T22:51:40.821Z,5.60
2024-01-05T22:54:27.788Z,5.78
2024-01-05T22:57:14.637Z,5.59
2024-01-05T23:00:01.799Z,5.75
2024-01-05T23:02:49.292Z,5.65
2024-01-05T23:05:37.340Z,5.73
2024-01-05T23:08:24.394Z,5.74
2024-01-05T23:11:12.032Z,5.84
2024-01-05T23:13:58.944Z,5.85
2024-01-05T23:16:48.531Z,5.78
2024-01-05T23:19:38.120Z,5.50
2024-01-05T23:22:29.862Z,5.53
2024-01-05T23:25:16.709Z,5.37
2024-01-05T23:28:03.609Z,5.43
2024-01-05T23:30:59.099Z,5.53
2024-01-05T23:34:00.762Z,5.26
2024-01-05T23:36:55.598Z,5.23
2024-01-05T23:39:44.609Z,5.38
2024-01-05T23:42:31.653Z,5.32
2024-01-05T23:45:18.562Z,5.30
2024-01-05T23:48:06.645Z,5.25
2024-01-05T23:50:54.007Z,5.03
2024-01-05T23:53:40.756Z,5.16
2024-01-05T23:56:29.165Z,5.12
2024-01-05T23:59:16.012Z,4.98
